Time;durP1;ratioP1;P1;durP2;ratioP2;P2;SDS_P1;SDS_P2;PMS_P1;PMS_P2;Temp;Humidity;BMP_temperature;BMP_pressure;BME280_temperature;BME280_humidity;BME280_pressure;Samples;Min_cycle;Max_cycle;Signal;HPM_P1;HPM_P2
2022/03/13 00:00:54;;;;;;;10.43;3.33;;;10.70;99.90;;;;;;5029502;28;20467;-76
2022/03/13 00:03:22;;;;;;;5.53;3.03;;;10.70;99.90;;;;;;5027451;28;20021;-74
2022/03/13 00:05:50;;;;;;;5.85;3.15;;;10.70;99.90;;;;;;5028242;28;20033;-76
2022/03/13 00:08:29;;;;;;;6.50;2.92;;;10.60;99.90;;;;;;5027725;28;20453;-76
2022/03/13 00:11:12;;;;;;;5.65;2.80;;;10.60;99.90;;;;;;5028175;28;20029;-75
2022/03/13 00:13:44;;;;;;;5.25;2.90;;;10.60;99.90;;;;;;5028248;28;20048;-75
2022/03/13 00:16:09;;;;;;;8.18;3.00;;;10.60;99.90;;;;;;5027767;28;20028;-76
2022/03/13 00:18:36;;;;;;;7.20;3.00;;;10.60;99.90;;;;;;5027814;28;20033;-75
2022/03/13 00:21:03;;;;;;;6.68;3.00;;;10.60;99.90;;;;;;5031193;28;20496;-76
2022/03/13 00:23:32;;;;;;;6.28;3.00;;;10.60;99.90;;;;;;5027720;28;20073;-76
2022/03/13 00:25:58;;;;;;;5.95;2.70;;;10.60;99.90;;;;;;5027848;28;20030;-76
2022/03/13 00:28:24;;;;;;;5.10;2.80;;;10.60;99.90;;;;;;5028738;28;20045;-76
2022/03/13 00:30:50;;;;;;;4.95;2.70;;;10.60;99.90;;;;;;5027230;28;20096;-76
2022/03/13 00:33:15;;;;;;;4.45;2.58;;;10.60;99.90;;;;;;5029615;28;20045;-76
2022/03/13 00:35:42;;;;;;;5.68;2.70;;;10.60;99.90;;;;;;5030920;28;20025;-76
2022/03/13 00:38:08;;;;;;;6.00;2.90;;;10.50;99.90;;;;;;5026322;28;20052;-76
2022/03/13 00:40:34;;;;;;;5.43;2.72;;;10.60;99.90;;;;;;5026219;28;20025;-76
2022/03/13 00:43:00;;;;;;;5.70;2.70;;;10.60;99.90;;;;;;5027359;28;20033;-75
2022/03/13 00:45:27;;;;;;;5.15;2.40;;;10.60;99.90;;;;;;5027827;28;20066;-76
2022/03/13 00:47:54;;;;;;;4.85;2.55;;;10.60;99.90;;;;;;5030406;28;20037;-76
2022/03/13 00:50:20;;;;;;;5.75;2.80;;;10.70;99.90;;;;;;5028511;28;20552;-76
2022/03/13 00:52:46;;;;;;;5.75;2.75;;;10.60;99.90;;;;;;5029083;28;20285;-76
2022/03/13 00:55:11;;;;;;;5.00;2.53;;;10.70;99.90;;;;;;5026535;28;20032;-75
2022/03/13 00:57:37;;;;;;;6.10;2.95;;;10.70;99.90;;;;;;5027097;28;20485;-76
2022/03/13 01:00:05;;;;;;;7.65;2.78;;;10.70;99.90;;;;;;5030480;28;20106;-75
2022/03/13 01:02:30;;;;;;;4.20;2.20;;;10.70;99.90;;;;;;5028468;28;20042;-75
2022/03/13 01:04:56;;;;;;;4.10;2.40;;;10.70;99.90;;;;;;5028770;28;20165;-75
2022/03/13 01:07:22;;;;;;;5.38;2.65;;;10.70;99.90;;;;;;5027853;28;20045;-76
2022/03/13 01:09:48;;;;;;;6.32;2.55;;;10.70;99.90;;;;;;5028326;28;20029;-76
2022/03/13 01:12:14;;;;;;;4.85;2.70;;;10.80;99.90;;;;;;5029348;28;20056;-76
2022/03/13 01:14:39;;;;;;;4.32;2.30;;;10.80;99.90;;;;;;5059524;28;20505;-75
2022/03/13 01:17:07;;;;;;;6.30;2.80;;;10.80;99.90;;;;;;5026509;28;20025;-76
2022/03/13 01:19:33;;;;;;;10.02;2.58;;;10.80;99.90;;;;;;5026445;28;20029;-76
2022/03/13 01:21:59;;;;;;;5.57;3.00;;;10.80;99.90;;;;;;5027458;28;20099;-76
2022/03/13 01:24:28;;;;;;;8.70;3.20;;;10.80;99.90;;;;;;5027310;28;20494;-76
2022/03/13 01:27:00;;;;;;;5.53;2.83;;;10.70;99.90;;;;;;5029632;28;20109;-76
2022/03/13 01:29:25;;;;;;;6.38;3.40;;;10.60;99.90;;;;;;5058690;28;20077;-76
2022/03/13 01:31:51;;;;;;;6.68;3.30;;;10.60;99.90;;;;;;5026628;28;20025;-76
2022/03/13 01:34:38;;;;;;;5.95;3.22;;;10.60;99.90;;;;;;5027898;28;20408;-76
2022/03/13 01:37:19;;;;;;;7.70;3.83;;;10.50;99.90;;;;;;5026556;28;20025;-75
2022/03/13 01:39:45;;;;;;;6.82;3.20;;;10.40;99.90;;;;;;5028583;28;20029;-76
2022/03/13 01:42:10;;;;;;;7.60;3.22;;;10.40;99.90;;;;;;5028668;28;20041;-76
2022/03/13 01:44:36;;;;;;;5.95;3.38;;;10.50;99.90;;;;;;5029045;28;20040;-76
2022/03/13 01:47:04;;;;;;;6.28;3.20;;;10.50;99.90;;;;;;5026114;28;20025;-76
2022/03/13 01:49:31;;;;;;;7.18;3.20;;;10.50;99.90;;;;;;5025997;28;20361;-76
2022/03/13 01:51:57;;;;;;;7.13;2.78;;;10.40;99.90;;;;;;5027323;28;20083;-76
2022/03/13 01:54:24;;;;;;;5.78;2.83;;;10.40;99.90;;;;;;5027254;28;20049;-76
2022/03/13 01:56:49;;;;;;;5.45;2.70;;;10.40;99.90;;;;;;5028184;28;20026;-75
2022/03/13 01:59:17;;;;;;;7.25;2.60;;;10.30;99.90;;;;;;5026510;28;20388;-75
2022/03/13 02:01:44;;;;;;;5.95;2.45;;;10.30;99.90;;;;;;5025707;28;20049;-76
2022/03/13 02:04:11;;;;;;;6.75;2.40;;;10.30;99.90;;;;;;5025550;28;20033;-76
2022/03/13 02:06:38;;;;;;;6.13;1.70;;;10.30;99.90;;;;;;5057857;28;20112;-76
2022/03/13 02:09:06;;;;;;;8.15;1.70;;;10.30;99.90;;;;;;5028113;28;20040;-75
2022/03/13 02:11:40;;;;;;;5.78;1.40;;;10.30;99.90;;;;;;5027624;28;20037;-76
2022/03/13 02:14:08;;;;;;;8.38;1.50;;;10.20;99.90;;;;;;5027281;28;20120;-76
2022/03/13 02:16:35;;;;;;;6.35;1.60;;;10.20;99.90;;;;;;5027746;28;20025;-76
2022/03/13 02:19:01;;;;;;;8.18;1.40;;;10.10;99.90;;;;;;5026866;28;20693;-76
2022/03/13 02:21:30;;;;;;;5.15;1.52;;;10.10;99.90;;;;;;5026074;28;20037;-76
2022/03/13 02:24:00;;;;;;;5.45;1.30;;;10.00;99.90;;;;;;5028181;28;20047;-75
2022/03/13 02:26:26;;;;;;;6.57;1.30;;;10.00;99.90;;;;;;5025193;28;20441;-76
2022/03/13 02:28:53;;;;;;;6.53;1.30;;;9.90;99.90;;;;;;5025845;28;20033;-76
2022/03/13 02:31:30;;;;;;;5.45;1.10;;;9.80;99.90;;;;;;5026834;28;20025;-76
2022/03/13 02:33:57;;;;;;;7.05;1.30;;;9.80;99.90;;;;;;5025196;28;20451;-76
2022/03/13 02:36:32;;;;;;;6.25;1.60;;;9.70;99.90;;;;;;5025641;28;20740;-75
2022/03/13 02:38:59;;;;;;;5.45;1.40;;;9.70;99.90;;;;;;5028827;28;20033;-76
2022/03/13 02:41:26;;;;;;;6.90;1.63;;;9.60;99.90;;;;;;5028323;28;20030;-76
2022/03/13 02:43:56;;;;;;;6.60;1.45;;;9.60;99.90;;;;;;5026441;28;20025;-76
2022/03/13 02:46:23;;;;;;;4.35;1.23;;;9.50;99.90;;;;;;5025787;28;20056;-76
2022/03/13 02:48:50;;;;;;;4.20;1.10;;;9.50;99.90;;;;;;5024988;28;20493;-76
2022/03/13 02:51:16;;;;;;;5.10;1.50;;;9.50;99.90;;;;;;5027599;28;20519;-76
2022/03/13 02:53:42;;;;;;;6.15;1.70;;;9.50;99.90;;;;;;5026240;28;20041;-76
2022/03/13 02:56:08;;;;;;;4.78;1.42;;;9.40;99.90;;;;;;5025567;28;20447;-75
2022/03/13 02:58:35;;;;;;;4.65;1.50;;;9.50;99.90;;;;;;5027401;28;20099;-76
2022/03/13 03:01:01;;;;;;;4.05;1.60;;;9.40;99.90;;;;;;5026378;28;20038;-76
2022/03/13 03:03:27;;;;;;;5.57;1.70;;;9.50;99.90;;;;;;5025835;28;20049;-76
2022/03/13 03:05:53;;;;;;;5.70;1.67;;;9.50;99.90;;;;;;5027805;28;20042;-75
2022/03/13 03:08:19;;;;;;;3.80;1.52;;;9.50;99.90;;;;;;5026319;28;20116;-75
2022/03/13 03:10:45;;;;;;;7.25;1.90;;;9.50;99.90;;;;;;5025995;28;20055;-76
2022/03/13 03:13:13;;;;;;;6.07;1.70;;;9.60;99.90;;;;;;5025310;28;20046;-75
2022/03/13 03:15:39;;;;;;;7.00;1.85;;;9.60;99.90;;;;;;5027202;28;20080;-74
2022/03/13 03:18:07;;;;;;;6.22;1.65;;;9.60;99.90;;;;;;5027457;28;20030;-76
2022/03/13 03:20:35;;;;;;;8.52;2.15;;;9.60;99.90;;;;;;5025709;28;20104;-75
2022/03/13 03:23:01;;;;;;;9.38;2.30;;;9.60;99.90;;;;;;5026905;28;20057;-76
2022/03/13 03:25:28;;;;;;;10.45;1.70;;;9.60;99.90;;;;;;5024623;28;20064;-76
2022/03/13 03:27:56;;;;;;;7.50;1.55;;;9.70;99.90;;;;;;5027385;28;20039;-76
2022/03/13 03:30:23;;;;;;;9.40;1.80;;;9.70;99.90;;;;;;5027009;28;20022;-76
2022/03/13 03:32:50;;;;;;;10.93;1.98;;;9.70;99.90;;;;;;5026589;28;20041;-76
2022/03/13 03:35:17;;;;;;;10.05;1.90;;;9.80;99.90;;;;;;5024494;28;20025;-76
2022/03/13 03:37:43;;;;;;;12.77;2.10;;;9.80;99.90;;;;;;5024872;28;20111;-77
2022/03/13 03:40:10;;;;;;;14.43;1.92;;;9.80;99.90;;;;;;5029576;28;20492;-76
2022/03/13 03:42:36;;;;;;;8.57;1.70;;;9.90;99.90;;;;;;5030842;28;20104;-75
2022/03/13 03:45:03;;;;;;;8.65;2.08;;;9.90;99.90;;;;;;5032075;28;20104;-76
2022/03/13 03:47:29;;;;;;;9.57;1.75;;;9.90;99.90;;;;;;5029079;28;20037;-75
2022/03/13 03:49:55;;;;;;;13.30;2.10;;;9.90;99.90;;;;;;5029278;28;20497;-75
2022/03/13 03:52:20;;;;;;;9.45;1.63;;;9.90;99.90;;;;;;5028397;28;20126;-76
2022/03/13 03:54:46;;;;;;;12.43;1.85;;;9.90;99.90;;;;;;5027654;28;20062;-75
2022/03/13 03:57:12;;;;;;;9.43;1.95;;;10.00;99.90;;;;;;5030488;28;20052;-76
2022/03/13 03:59:38;;;;;;;12.57;2.10;;;10.00;99.90;;;;;;5030759;28;20029;-75
2022/03/13 04:02:04;;;;;;;9.27;1.65;;;9.90;99.90;;;;;;5027660;28;20476;-76
2022/03/13 04:04:29;;;;;;;10.30;2.20;;;10.00;99.90;;;;;;5028776;28;20032;-76
2022/03/13 04:06:55;;;;;;;8.05;1.95;;;9.90;99.90;;;;;;5028345;28;20021;-75
2022/03/13 04:09:21;;;;;;;10.52;2.22;;;10.00;99.90;;;;;;5029807;28;20041;-75
2022/03/13 04:11:47;;;;;;;9.98;2.15;;;9.90;99.90;;;;;;5029700;28;20112;-75
2022/03/13 04:14:14;;;;;;;10.35;2.58;;;9.90;99.90;;;;;;5028044;28;20079;-75
2022/03/13 04:16:41;;;;;;;9.63;2.30;;;9.90;99.90;;;;;;5029226;28;20018;-75
2022/03/13 04:19:09;;;;;;;8.00;2.55;;;9.90;99.90;;;;;;5027813;28;20029;-76
2022/03/13 04:21:40;;;;;;;10.13;3.03;;;9.90;99.90;;;;;;5022712;28;20491;-77
2022/03/13 04:24:11;;;;;;;8.80;2.70;;;9.90;99.90;;;;;;5029497;28;20029;-75
2022/03/13 04:26:39;;;;;;;12.65;2.97;;;9.90;99.90;;;;;;5030076;28;20029;-76
2022/03/13 04:29:09;;;;;;;6.03;2.50;;;10.00;99.90;;;;;;5026871;28;20045;-76
2022/03/13 04:31:37;;;;;;;11.52;2.83;;;10.00;99.90;;;;;;5027848;28;20052;-76
2022/03/13 04:34:04;;;;;;;6.80;2.95;;;10.00;99.90;;;;;;5027114;28;20849;-77
2022/03/13 04:36:32;;;;;;;8.65;3.10;;;10.00;99.90;;;;;;5029551;28;20111;-77
2022/03/13 04:38:59;;;;;;;12.63;3.03;;;10.00;99.90;;;;;;5030943;28;20040;-76
2022/03/13 04:41:25;;;;;;;9.50;3.35;;;10.00;99.90;;;;;;5026605;28;20504;-77
2022/03/13 04:43:53;;;;;;;8.13;3.20;;;10.00;99.90;;;;;;5027357;28;20115;-77
2022/03/13 04:46:19;;;;;;;7.57;3.05;;;10.00;99.90;;;;;;5028966;28;20040;-77
2022/03/13 04:48:45;;;;;;;7.45;3.28;;;10.00;99.90;;;;;;5026946;28;20032;-75
2022/03/13 04:51:11;;;;;;;7.80;3.10;;;10.00;99.90;;;;;;5029354;28;20029;-76
2022/03/13 04:53:38;;;;;;;7.57;3.40;;;10.00;99.90;;;;;;5029654;28;20045;-76
2022/03/13 04:56:04;;;;;;;9.18;3.40;;;10.00;99.90;;;;;;5026566;28;20029;-76
2022/03/13 04:58:30;;;;;;;9.50;3.33;;;10.00;99.90;;;;;;5028764;28;20033;-76
2022/03/13 05:00:56;;;;;;;6.75;3.38;;;10.00;99.90;;;;;;5028695;28;20038;-76
2022/03/13 05:03:22;;;;;;;10.77;3.63;;;10.00;99.90;;;;;;5028560;28;20040;-75
2022/03/13 05:05:49;;;;;;;9.52;3.50;;;10.00;99.90;;;;;;5028696;28;20095;-75
2022/03/13 05:08:15;;;;;;;7.97;3.55;;;10.00;99.90;;;;;;5026671;28;20484;-76
2022/03/13 05:10:45;;;;;;;7.72;3.20;;;10.00;99.90;;;;;;5025969;28;20025;-76
2022/03/13 05:13:14;;;;;;;10.77;4.05;;;10.00;99.90;;;;;;5025932;28;20029;-75
2022/03/13 05:15:42;;;;;;;12.90;3.80;;;10.00;99.90;;;;;;5028227;28;20029;-76
2022/03/13 05:18:08;;;;;;;10.23;3.13;;;10.00;99.90;;;;;;5026553;28;20055;-76
2022/03/13 05:20:35;;;;;;;10.88;3.45;;;10.00;99.90;;;;;;5027566;28;20500;-76
2022/03/13 05:23:06;;;;;;;7.78;3.50;;;10.00;99.90;;;;;;5026263;28;20024;-75
2022/03/13 05:25:33;;;;;;;8.27;3.50;;;10.00;99.90;;;;;;5026342;28;20034;-76
2022/03/13 05:27:59;;;;;;;9.23;3.58;;;10.00;99.90;;;;;;5026346;28;20045;-76
2022/03/13 05:30:26;;;;;;;7.65;3.47;;;10.00;99.90;;;;;;5027771;28;20072;-76
2022/03/13 05:32:51;;;;;;;7.97;3.25;;;10.00;99.90;;;;;;5029058;28;20481;-76
2022/03/13 05:35:18;;;;;;;8.32;3.42;;;10.00;99.90;;;;;;5028392;28;20083;-76
2022/03/13 05:37:44;;;;;;;11.88;3.38;;;10.00;99.90;;;;;;5026064;28;20052;-75
2022/03/13 05:40:15;;;;;;;10.05;3.42;;;10.00;99.90;;;;;;5025975;28;20033;-75
2022/03/13 05:42:43;;;;;;;13.15;3.40;;;10.10;99.90;;;;;;5028391;28;20033;-76
2022/03/13 05:45:10;;;;;;;8.60;3.13;;;10.00;99.90;;;;;;5028610;28;20040;-76
2022/03/13 05:47:58;;;;;;;11.57;3.22;;;10.00;99.90;;;;;;5028823;28;20029;-76
2022/03/13 05:50:26;;;;;;;13.45;3.42;;;10.10;99.90;;;;;;5026960;28;20061;-75
2022/03/13 05:52:56;;;;;;;9.65;3.35;;;10.10;99.90;;;;;;5026248;28;20053;-76
2022/03/13 05:55:23;;;;;;;14.07;3.20;;;10.10;99.90;;;;;;5027711;28;20122;-76
2022/03/13 05:57:49;;;;;;;9.95;3.20;;;10.10;99.90;;;;;;5026690;28;20076;-75
2022/03/13 06:00:16;;;;;;;13.65;3.30;;;10.10;99.90;;;;;;5026973;28;20033;-75
2022/03/13 06:02:47;;;;;;;12.93;3.20;;;10.10;99.90;;;;;;5026806;28;20033;-75
2022/03/13 06:05:15;;;;;;;13.02;3.85;;;10.10;99.90;;;;;;5026007;28;20033;-75
2022/03/13 06:07:41;;;;;;;11.55;3.72;;;10.10;99.90;;;;;;5025953;28;20092;-75
2022/03/13 06:10:08;;;;;;;14.48;3.20;;;10.20;99.90;;;;;;5028623;28;20502;-75
2022/03/13 06:12:35;;;;;;;14.63;3.17;;;10.10;99.90;;;;;;5011208;28;20072;-74
2022/03/13 06:15:02;;;;;;;11.25;3.00;;;10.10;99.90;;;;;;5028847;28;20038;-75
2022/03/13 06:17:28;;;;;;;11.20;3.30;;;10.10;99.90;;;;;;5027440;28;20791;-75
2022/03/13 06:19:55;;;;;;;12.98;3.70;;;10.10;99.90;;;;;;5025651;28;20108;-75
2022/03/13 06:22:24;;;;;;;10.98;3.15;;;10.10;99.90;;;;;;5027854;28;20017;-74
2022/03/13 06:24:50;;;;;;;13.65;3.13;;;10.20;99.90;;;;;;5025608;28;20034;-75
2022/03/13 06:27:17;;;;;;;10.52;3.15;;;10.20;99.90;;;;;;5027839;28;20113;-75
2022/03/13 06:29:44;;;;;;;12.60;3.25;;;10.10;99.90;;;;;;5026758;28;20033;-75
2022/03/13 06:32:10;;;;;;;12.43;2.97;;;10.20;99.90;;;;;;5026003;28;20032;-75
2022/03/13 06:34:37;;;;;;;13.45;3.15;;;10.10;99.90;;;;;;5025420;28;20389;-75
2022/03/13 06:37:04;;;;;;;13.27;3.15;;;10.20;99.90;;;;;;5025114;28;20024;-75
2022/03/13 06:39:30;;;;;;;10.18;3.40;;;10.20;99.90;;;;;;5026564;28;20034;-76
2022/03/13 06:41:56;;;;;;;12.93;3.00;;;10.20;99.90;;;;;;5027478;28;20455;-76
2022/03/13 06:44:23;;;;;;;11.75;3.10;;;10.20;99.90;;;;;;5034886;28;20124;-75
2022/03/13 06:46:48;;;;;;;11.75;3.30;;;10.20;99.90;;;;;;5031674;28;20037;-76
2022/03/13 06:49:14;;;;;;;10.15;2.90;;;10.20;99.90;;;;;;5026139;28;20048;-76
2022/03/13 06:51:40;;;;;;;10.25;2.20;;;10.20;99.90;;;;;;5037073;28;20061;-75
2022/03/13 06:54:07;;;;;;;8.70;1.80;;;10.20;99.90;;;;;;5027275;28;20088;-74
2022/03/13 06:56:36;;;;;;;9.35;1.48;;;10.20;99.90;;;;;;5025578;28;20109;-76
2022/03/13 06:59:03;;;;;;;11.00;1.75;;;10.20;99.90;;;;;;5027733;28;20025;-75
2022/03/13 07:01:30;;;;;;;6.90;1.30;;;10.20;99.90;;;;;;5024511;28;20053;-75
2022/03/13 07:03:56;;;;;;;8.02;1.20;;;10.20;99.90;;;;;;5026449;28;20511;-75
2022/03/13 07:06:22;;;;;;;9.48;1.52;;;10.10;99.90;;;;;;5025589;28;20018;-76
2022/03/13 07:08:48;;;;;;;12.35;1.48;;;10.10;99.90;;;;;;5028271;28;20029;-74
2022/03/13 07:11:15;;;;;;;9.52;1.63;;;10.10;99.90;;;;;;5026676;28;20057;-76
2022/03/13 07:13:42;;;;;;;9.25;1.30;;;10.00;99.90;;;;;;5028045;28;20373;-75
2022/03/13 07:16:08;;;;;;;8.73;1.33;;;10.00;99.90;;;;;;5029481;28;20064;-76
2022/03/13 07:18:33;;;;;;;10.48;1.30;;;9.90;99.90;;;;;;5020319;28;20064;-76
2022/03/13 07:20:59;;;;;;;8.68;1.80;;;9.90;99.90;;;;;;5032750;28;20028;-74
2022/03/13 07:23:25;;;;;;;9.90;1.60;;;9.90;99.90;;;;;;5028862;28;20113;-76
2022/03/13 07:25:51;;;;;;;11.65;1.42;;;9.90;99.90;;;;;;5027619;28;20063;-76
2022/03/13 07:28:18;;;;;;;16.65;1.70;;;9.90;99.90;;;;;;5029887;28;20061;-76
2022/03/13 07:30:45;;;;;;;10.13;1.60;;;9.90;99.90;;;;;;5029645;28;20037;-76
2022/03/13 07:33:11;;;;;;;9.52;1.30;;;9.90;99.90;;;;;;5013839;28;20037;-76
2022/03/13 07:35:38;;;;;;;10.00;1.10;;;9.90;99.90;;;;;;5031584;28;20044;-76
2022/03/13 07:38:04;;;;;;;9.43;1.60;;;9.90;99.90;;;;;;5028071;28;20053;-76
2022/03/13 07:40:30;;;;;;;8.30;1.42;;;10.00;99.90;;;;;;5029406;28;20033;-76
2022/03/13 07:42:57;;;;;;;8.70;1.40;;;10.00;99.90;;;;;;5035323;28;20588;-76
2022/03/13 07:45:24;;;;;;;9.65;1.40;;;10.10;99.90;;;;;;5030398;28;20055;-75
2022/03/13 07:47:50;;;;;;;8.75;1.27;;;10.10;99.90;;;;;;5030633;28;20025;-76
2022/03/13 07:50:16;;;;;;;8.80;1.48;;;10.10;99.90;;;;;;5029734;28;20382;-76
2022/03/13 07:52:42;;;;;;;9.73;1.80;;;10.20;99.90;;;;;;5029654;28;20929;-75
2022/03/13 07:55:09;;;;;;;8.95;1.80;;;10.30;99.90;;;;;;5028391;28;20037;-75
2022/03/13 07:57:35;;;;;;;7.40;1.70;;;10.30;99.90;;;;;;5020745;28;20021;-76
2022/03/13 08:00:01;;;;;;;7.80;1.80;;;10.30;99.90;;;;;;5028069;28;20037;-76
2022/03/13 08:02:27;;;;;;;9.68;1.40;;;10.40;99.90;;;;;;5024314;28;20451;-76
2022/03/13 08:04:53;;;;;;;8.90;1.60;;;10.40;99.90;;;;;;5022536;28;20017;-76
2022/03/13 08:07:19;;;;;;;10.55;1.60;;;10.50;99.90;;;;;;5017078;28;20045;-76
2022/03/13 08:09:44;;;;;;;10.52;2.13;;;10.50;99.90;;;;;;5013475;28;20393;-76
2022/03/13 08:12:11;;;;;;;10.82;2.10;;;10.50;99.90;;;;;;5015127;28;20104;-76
2022/03/13 08:14:37;;;;;;;13.15;2.22;;;10.60;99.90;;;;;;5016888;28;20041;-76
2022/03/13 08:17:03;;;;;;;12.38;2.08;;;10.60;99.90;;;;;;5022026;28;20029;-75
2022/03/13 08:19:29;;;;;;;8.77;1.50;;;10.60;99.90;;;;;;5057634;28;20588;-76
2022/03/13 08:21:55;;;;;;;15.98;5.53;;;10.70;99.90;;;;;;5014705;28;20034;-75
2022/03/13 08:24:21;;;;;;;22.98;9.00;;;10.70;99.90;;;;;;5012829;28;20025;-75
2022/03/13 08:26:46;;;;;;;9.40;1.98;;;10.80;99.90;;;;;;5024994;28;20029;-76
2022/03/13 08:29:14;;;;;;;8.52;1.92;;;10.80;99.90;;;;;;5016521;28;20644;-76
2022/03/13 08:31:40;;;;;;;7.35;1.50;;;10.70;99.90;;;;;;5016555;28;20022;-76
2022/03/13 08:34:10;;;;;;;7.03;1.52;;;10.70;99.90;;;;;;5015910;28;20167;-75
2022/03/13 08:36:40;;;;;;;8.73;1.95;;;10.80;99.90;;;;;;5012322;28;20104;-75
2022/03/13 08:39:06;;;;;;;;;;;10.70;99.90;;;;;;5027587;28;20029;-76
2022/03/13 08:41:33;;;;;;;8.80;1.90;;;10.70;99.90;;;;;;5024927;28;19910;-76
2022/03/13 08:43:59;;;;;;;9.07;1.90;;;10.70;99.90;;;;;;5020624;28;20034;-76
2022/03/13 08:46:24;;;;;;;7.35;1.83;;;10.70;99.90;;;;;;5019951;28;20033;-76
2022/03/13 08:48:50;;;;;;;8.68;1.83;;;10.80;99.90;;;;;;5013304;28;20096;-75
2022/03/13 08:51:18;;;;;;;6.90;1.85;;;10.80;99.90;;;;;;5027963;28;20029;-76
2022/03/13 08:53:44;;;;;;;8.27;1.70;;;10.90;99.90;;;;;;5015554;28;20508;-76
2022/03/13 08:56:13;;;;;;;11.38;1.80;;;10.90;99.90;;;;;;5021260;28;20030;-76
2022/03/13 08:58:40;;;;;;;7.63;1.83;;;11.00;99.90;;;;;;5028909;28;20029;-76
2022/03/13 09:01:06;;;;;;;7.80;1.92;;;11.00;99.90;;;;;;5026926;28;20034;-76
2022/03/13 09:03:33;;;;;;;7.45;1.60;;;11.00;99.90;;;;;;5027448;28;20033;-76
2022/03/13 09:05:59;;;;;;;10.38;1.55;;;11.00;99.90;;;;;;5029522;28;20055;-76
2022/03/13 09:08:25;;;;;;;7.30;1.85;;;11.00;99.90;;;;;;5026694;28;20111;-75
2022/03/13 09:10:53;;;;;;;7.38;1.60;;;11.10;99.90;;;;;;5026542;28;20056;-75
2022/03/13 09:13:20;;;;;;;6.65;1.60;;;11.10;99.90;;;;;;5028086;28;20076;-76
2022/03/13 09:15:47;;;;;;;6.93;1.70;;;11.10;99.90;;;;;;5026338;28;20397;-75
2022/03/13 09:18:13;;;;;;;17.17;6.78;;;11.00;99.90;;;;;;5027774;28;20037;-76
2022/03/13 09:20:39;;;;;;;25.02;12.57;;;11.10;99.90;;;;;;5029493;28;20496;-76
2022/03/13 09:23:07;;;;;;;6.22;2.03;;;11.10;99.90;;;;;;5026582;28;20049;-75
2022/03/13 09:25:34;;;;;;;8.07;1.60;;;11.20;99.90;;;;;;5026152;28;20939;-76
2022/03/13 09:28:00;;;;;;;16.77;6.55;;;11.30;99.90;;;;;;5026421;28;20024;-74
2022/03/13 09:30:26;;;;;;;9.23;3.20;;;11.30;99.90;;;;;;5028654;28;20495;-76
2022/03/13 09:32:52;;;;;;;14.45;4.47;;;11.30;99.90;;;;;;5029717;28;20056;-75
2022/03/13 09:35:18;;;;;;;7.40;1.73;;;11.30;99.90;;;;;;5025485;28;20068;-75
2022/03/13 09:37:44;;;;;;;6.20;1.73;;;11.50;99.90;;;;;;5027954;28;20053;-75
2022/03/13 09:40:11;;;;;;;10.55;1.92;;;11.40;99.90;;;;;;5029640;28;20029;-76
2022/03/13 09:42:38;;;;;;;8.27;2.00;;;11.50;99.90;;;;;;5026424;28;20510;-76
2022/03/13 09:45:04;;;;;;;7.32;2.15;;;11.50;99.90;;;;;;5029020;28;20043;-75
2022/03/13 09:47:30;;;;;;;9.27;2.20;;;11.60;99.90;;;;;;5031444;28;20041;-75
2022/03/13 09:49:56;;;;;;;7.90;1.90;;;11.70;99.90;;;;;;5026602;28;20071;-75
2022/03/13 09:52:22;;;;;;;9.27;1.80;;;11.80;99.90;;;;;;5024993;28;20025;-75
2022/03/13 09:54:48;;;;;;;8.82;1.88;;;11.90;99.90;;;;;;5026288;28;20052;-76
2022/03/13 09:57:14;;;;;;;13.50;2.17;;;12.00;99.90;;;;;;5027902;28;20557;-76
2022/03/13 09:59:43;;;;;;;9.05;1.92;;;12.10;99.90;;;;;;5027336;28;20041;-75
2022/03/13 10:02:09;;;;;;;8.65;1.90;;;12.10;99.80;;;;;;5026208;28;20041;-75
2022/03/13 10:04:35;;;;;;;12.40;1.85;;;12.20;99.30;;;;;;5026794;28;20036;-75
2022/03/13 10:07:03;;;;;;;12.98;2.47;;;12.30;98.70;;;;;;5026465;28;20041;-75
2022/03/13 10:09:30;;;;;;;11.77;2.30;;;12.30;98.30;;;;;;5026885;28;20130;-75
2022/03/13 10:12:13;;;;;;;9.02;1.95;;;12.40;97.80;;;;;;5027975;28;20037;-75
2022/03/13 10:15:05;;;;;;;9.63;2.08;;;12.40;97.70;;;;;;5026769;28;20092;-75
2022/03/13 10:17:33;;;;;;;10.55;2.65;;;12.40;98.00;;;;;;5027577;28;20025;-74
2022/03/13 10:20:11;;;;;;;15.02;2.58;;;12.50;98.00;;;;;;5024015;28;20029;-73
2022/03/13 10:22:38;;;;;;;11.00;1.95;;;12.70;96.80;;;;;;5019783;28;20110;-73
2022/03/13 10:25:05;;;;;;;10.48;2.00;;;12.80;96.00;;;;;;5025035;28;20037;-73
2022/03/13 10:27:33;;;;;;;11.38;1.90;;;12.80;95.80;;;;;;5027534;28;20026;-74
2022/03/13 10:30:01;;;;;;;12.02;2.00;;;12.90;95.60;;;;;;5027572;28;20030;-74
2022/03/13 10:32:27;;;;;;;11.68;1.90;;;13.00;94.80;;;;;;5025707;28;20026;-74
2022/03/13 10:34:57;;;;;;;10.57;1.65;;;13.20;94.40;;;;;;5025858;28;20048;-75
2022/03/13 10:37:40;;;;;;;11.10;2.10;;;13.50;92.50;;;;;;5025527;28;20500;-74
2022/03/13 10:40:15;;;;;;;11.85;2.13;;;13.80;91.20;;;;;;5025951;28;20029;-74
2022/03/13 10:42:43;;;;;;;11.00;1.80;;;14.20;89.80;;;;;;5018843;28;20034;-75
2022/03/13 10:45:30;;;;;;;14.18;2.00;;;14.70;86.10;;;;;;5026540;28;20553;-75
2022/03/13 10:48:28;;;;;;;9.52;1.70;;;15.20;82.80;;;;;;5029667;28;20022;-75
2022/03/13 10:50:56;;;;;;;12.25;2.03;;;15.80;78.90;;;;;;5031233;28;20119;-75
2022/03/13 10:53:22;;;;;;;9.75;1.83;;;16.30;72.60;;;;;;5028707;28;20025;-75
2022/03/13 10:56:09;;;;;;;17.25;2.33;;;16.40;70.90;;;;;;5027555;28;20033;-75
2022/03/13 10:58:40;;;;;;;12.48;1.95;;;16.50;69.90;;;;;;5026445;28;20036;-75
2022/03/13 11:01:16;;;;;;;8.65;2.00;;;16.70;69.30;;;;;;5036954;28;20044;-75
2022/03/13 11:03:51;;;;;;;13.82;2.20;;;17.00;67.80;;;;;;5028171;28;20489;-74
2022/03/13 11:06:17;;;;;;;14.93;2.03;;;17.30;64.20;;;;;;5030259;28;20029;-74
2022/03/13 11:08:44;;;;;;;13.27;2.30;;;17.50;62.40;;;;;;5032293;28;20592;-75
2022/03/13 11:11:15;;;;;;;13.55;2.47;;;17.20;63.20;;;;;;5028832;28;20067;-75
2022/03/13 11:13:42;;;;;;;14.15;2.42;;;17.20;63.80;;;;;;5032445;28;20116;-75
2022/03/13 11:16:10;;;;;;;17.77;2.28;;;17.50;61.90;;;;;;5022596;28;20467;-74
2022/03/13 11:18:38;;;;;;;13.23;2.05;;;17.50;59.80;;;;;;5033024;28;20029;-75
2022/03/13 11:21:08;;;;;;;15.10;2.50;;;17.60;59.90;;;;;;5031925;28;20087;-75
2022/03/13 11:23:37;;;;;;;14.93;2.30;;;17.70;58.60;;;;;;5030765;28;20017;-75
2022/03/13 11:26:05;;;;;;;14.52;2.33;;;18.30;56.60;;;;;;5028863;28;20129;-75
2022/03/13 11:28:32;;;;;;;14.25;2.28;;;18.80;54.60;;;;;;5027523;28;20028;-74
2022/03/13 11:30:58;;;;;;;11.98;2.20;;;19.50;53.20;;;;;;5028261;28;20037;-75
2022/03/13 11:33:35;;;;;;;17.45;2.45;;;20.00;49.60;;;;;;5030958;28;20057;-74
2022/03/13 11:36:27;;;;;;;11.80;2.20;;;20.30;46.30;;;;;;5063717;28;20396;-74
2022/03/13 11:39:00;;;;;;;15.80;2.60;;;20.10;46.40;;;;;;5044499;28;20033;-74
2022/03/13 11:41:52;;;;;;;14.60;2.40;;;20.10;46.00;;;;;;5028338;28;20799;-74
2022/03/13 11:44:18;;;;;;;16.58;2.65;;;19.70;48.70;;;;;;5028847;28;20053;-75
2022/03/13 11:46:46;;;;;;;14.18;2.47;;;20.20;46.20;;;;;;5029514;28;20112;-74
2022/03/13 11:49:38;;;;;;;15.65;2.30;;;20.40;45.90;;;;;;5027736;28;20030;-74
2022/03/13 11:52:12;;;;;;;13.20;2.63;;;21.00;44.70;;;;;;5027955;28;20037;-75
2022/03/13 11:54:53;;;;;;;15.02;2.30;;;20.50;45.50;;;;;;5015056;28;20037;-75
2022/03/13 11:57:27;;;;;;;17.23;2.88;;;19.90;46.50;;;;;;5032057;28;20045;-74
2022/03/13 12:00:11;;;;;;;17.48;3.50;;;20.10;46.20;;;;;;5028676;28;20116;-75
2022/03/13 12:02:43;;;;;;;20.75;3.03;;;20.90;43.40;;;;;;5030802;28;20133;-75
2022/03/13 12:05:28;;;;;;;13.07;2.60;;;21.10;42.40;;;;;;5028698;28;20034;-75
2022/03/13 12:08:04;;;;;;;11.10;2.08;;;20.90;41.80;;;;;;5026811;28;20034;-76
2022/03/13 12:10:42;;;;;;;12.77;2.15;;;20.10;44.80;;;;;;5060253;28;20068;-74
2022/03/13 12:13:13;;;;;;;15.93;2.80;;;19.20;46.00;;;;;;5028340;28;20440;-74
2022/03/13 12:15:40;;;;;;;;;;;18.40;49.10;;;;;;5019944;28;20506;-75
2022/03/13 12:18:27;;;;;;;19.63;2.40;;;17.80;52.20;;;;;;5031234;28;20399;-75
2022/03/13 12:21:04;;;;;;;16.20;2.35;;;17.40;53.90;;;;;;5029225;28;20041;-75
2022/03/13 12:23:33;;;;;;;14.00;2.50;;;17.10;55.10;;;;;;5029119;28;20416;-77
2022/03/13 12:26:25;;;;;;;13.80;2.20;;;17.50;54.00;;;;;;5029002;28;20123;-76
2022/03/13 12:28:58;;;;;;;15.48;2.50;;;18.50;50.80;;;;;;5029411;28;20151;-75
2022/03/13 12:31:26;;;;;;;12.90;2.45;;;19.40;47.90;;;;;;5029358;28;20596;-74
2022/03/13 12:33:53;;;;;;;15.00;2.53;;;20.00;45.30;;;;;;5027363;28;20040;-76
2022/03/13 12:36:23;;;;;;;15.32;2.45;;;20.50;44.70;;;;;;5029291;28;20086;-75
2022/03/13 12:38:52;;;;;;;18.95;2.70;;;21.00;43.10;;;;;;5029056;28;20152;-74
2022/03/13 12:41:19;;;;;;;13.53;2.43;;;21.80;41.60;;;;;;5026424;28;20036;-75
2022/03/13 12:44:01;;;;;;;12.18;2.67;;;22.90;38.80;;;;;;5022576;28;20029;-76
2022/03/13 12:46:29;;;;;;;15.80;2.80;;;23.50;35.80;;;;;;5027935;28;20025;-75
2022/03/13 12:48:59;;;;;;;16.23;2.80;;;22.90;37.30;;;;;;5028309;28;20044;-75
2022/03/13 12:51:45;;;;;;;14.52;3.00;;;21.80;39.00;;;;;;5028409;28;20029;-75